sensor_id;sensor_type;location;lat;lon;timestamp;P1;durP1;ratioP1;P2;durP2;ratioP2
10882;SDS011;5494;51.796;10.952;2023-04-03T00:01:25;5.90;;;1.10;;
10882;SDS011;5494;51.796;10.952;2023-04-03T00:04:13;6.00;;;1.55;;
10882;SDS011;5494;51.796;10.952;2023-04-03T00:07:03;3.95;;;1.00;;
10882;SDS011;5494;51.796;10.952;2023-04-03T00:09:51;5.03;;;1.20;;
10882;SDS011;5494;51.796;10.952;2023-04-03T00:12:40;5.90;;;1.42;;
10882;SDS011;5494;51.796;10.952;2023-04-03T00:15:28;4.13;;;1.30;;
10882;SDS011;5494;51.796;10.952;2023-04-03T00:18:16;1.55;;;0.90;;
10882;SDS011;5494;51.796;10.952;2023-04-03T00:21:05;5.30;;;1.30;;
10882;SDS011;5494;51.796;10.952;2023-04-03T00:23:55;2.53;;;1.13;;
10882;SDS011;5494;51.796;10.952;2023-04-03T00:26:44;2.72;;;1.13;;
10882;SDS011;5494;51.796;10.952;2023-04-03T00:29:33;4.38;;;1.20;;
10882;SDS011;5494;51.796;10.952;2023-04-03T00:32:21;3.92;;;1.45;;
10882;SDS011;5494;51.796;10.952;2023-04-03T00:35:09;3.90;;;1.25;;
10882;SDS011;5494;51.796;10.952;2023-04-03T00:37:58;2.92;;;1.00;;
10882;SDS011;5494;51.796;10.952;2023-04-03T00:40:48;3.03;;;1.15;;
10882;SDS011;5494;51.796;10.952;2023-04-03T00:43:37;2.17;;;0.98;;
10882;SDS011;5494;51.796;10.952;2023-04-03T00:46:27;2.90;;;0.80;;
10882;SDS011;5494;51.796;10.952;2023-04-03T00:49:15;5.10;;;1.20;;
10882;SDS011;5494;51.796;10.952;2023-04-03T00:52:04;3.28;;;1.15;;
10882;SDS011;5494;51.796;10.952;2023-04-03T00:54:57;4.53;;;1.27;;
10882;SDS011;5494;51.796;10.952;2023-04-03T00:57:53;4.30;;;1.25;;
10882;SDS011;5494;51.796;10.952;2023-04-03T01:00:45;4.38;;;1.08;;
10882;SDS011;5494;51.796;10.952;2023-04-03T01:03:44;3.70;;;1.17;;
10882;SDS011;5494;51.796;10.952;2023-04-03T01:06:34;4.20;;;1.30;;
10882;SDS011;5494;51.796;10.952;2023-04-03T01:09:27;4.13;;;1.15;;
10882;SDS011;5494;51.796;10.952;2023-04-03T01:12:18;2.25;;;1.38;;
10882;SDS011;5494;51.796;10.952;2023-04-03T01:15:11;3.28;;;0.98;;
10882;SDS011;5494;51.796;10.952;2023-04-03T01:18:03;2.13;;;0.95;;
10882;SDS011;5494;51.796;10.952;2023-04-03T01:24:26;3.25;;;1.20;;
10882;SDS011;5494;51.796;10.952;2023-04-03T01:27:24;2.13;;;1.02;;
10882;SDS011;5494;51.796;10.952;2023-04-03T01:30:14;2.45;;;1.00;;
10882;SDS011;5494;51.796;10.952;2023-04-03T01:33:08;3.42;;;1.10;;
10882;SDS011;5494;51.796;10.952;2023-04-03T01:35:57;7.97;;;1.45;;
10882;SDS011;5494;51.796;10.952;2023-04-03T01:38:46;3.65;;;1.40;;
10882;SDS011;5494;51.796;10.952;2023-04-03T01:41:34;4.53;;;1.65;;
10882;SDS011;5494;51.796;10.952;2023-04-03T01:44:31;3.78;;;1.27;;
10882;SDS011;5494;51.796;10.952;2023-04-03T01:47:19;5.05;;;1.33;;
10882;SDS011;5494;51.796;10.952;2023-04-03T01:50:10;3.47;;;0.82;;
10882;SDS011;5494;51.796;10.952;2023-04-03T01:52:59;3.40;;;1.27;;
10882;SDS011;5494;51.796;10.952;2023-04-03T01:55:47;3.10;;;1.50;;
10882;SDS011;5494;51.796;10.952;2023-04-03T01:58:36;5.45;;;1.40;;
10882;SDS011;5494;51.796;10.952;2023-04-03T02:01:24;4.05;;;1.60;;
10882;SDS011;5494;51.796;10.952;2023-04-03T02:04:13;7.03;;;1.67;;
10882;SDS011;5494;51.796;10.952;2023-04-03T02:07:03;4.28;;;1.30;;
10882;SDS011;5494;51.796;10.952;2023-04-03T02:09:52;6.10;;;1.38;;
10882;SDS011;5494;51.796;10.952;2023-04-03T02:12:40;4.93;;;0.98;;
10882;SDS011;5494;51.796;10.952;2023-04-03T02:15:29;3.25;;;1.08;;
10882;SDS011;5494;51.796;10.952;2023-04-03T02:18:17;2.22;;;1.20;;
10882;SDS011;5494;51.796;10.952;2023-04-03T02:21:05;9.77;;;1.30;;
10882;SDS011;5494;51.796;10.952;2023-04-03T02:23:55;1.98;;;1.20;;
10882;SDS011;5494;51.796;10.952;2023-04-03T02:26:43;1.88;;;1.00;;
10882;SDS011;5494;51.796;10.952;2023-04-03T02:29:32;6.20;;;1.45;;
10882;SDS011;5494;51.796;10.952;2023-04-03T02:32:20;4.90;;;1.20;;
10882;SDS011;5494;51.796;10.952;2023-04-03T02:35:10;3.47;;;1.50;;
10882;SDS011;5494;51.796;10.952;2023-04-03T02:37:59;2.05;;;1.00;;
10882;SDS011;5494;51.796;10.952;2023-04-03T02:40:49;2.08;;;1.00;;
10882;SDS011;5494;51.796;10.952;2023-04-03T02:43:38;3.13;;;1.38;;
10882;SDS011;5494;51.796;10.952;2023-04-03T02:46:26;3.45;;;1.35;;
10882;SDS011;5494;51.796;10.952;2023-04-03T02:49:15;2.65;;;1.20;;
10882;SDS011;5494;51.796;10.952;2023-04-03T02:52:04;4.43;;;1.85;;
10882;SDS011;5494;51.796;10.952;2023-04-03T02:54:52;4.72;;;1.30;;
10882;SDS011;5494;51.796;10.952;2023-04-03T02:57:42;4.97;;;1.20;;
10882;SDS011;5494;51.796;10.952;2023-04-03T03:00:32;3.53;;;1.25;;
10882;SDS011;5494;51.796;10.952;2023-04-03T03:03:21;2.53;;;0.95;;
10882;SDS011;5494;51.796;10.952;2023-04-03T03:06:10;4.65;;;1.50;;
10882;SDS011;5494;51.796;10.952;2023-04-03T03:09:01;3.28;;;1.50;;
10882;SDS011;5494;51.796;10.952;2023-04-03T03:11:50;3.88;;;1.15;;
10882;SDS011;5494;51.796;10.952;2023-04-03T03:14:39;2.33;;;1.30;;
10882;SDS011;5494;51.796;10.952;2023-04-03T03:17:29;5.65;;;1.45;;
10882;SDS011;5494;51.796;10.952;2023-04-03T03:20:17;3.85;;;1.40;;
10882;SDS011;5494;51.796;10.952;2023-04-03T03:23:06;4.38;;;1.27;;
10882;SDS011;5494;51.796;10.952;2023-04-03T03:25:54;4.50;;;1.45;;
10882;SDS011;5494;51.796;10.952;2023-04-03T03:28:44;3.15;;;1.65;;
10882;SDS011;5494;51.796;10.952;2023-04-03T03:31:34;7.82;;;1.63;;
10882;SDS011;5494;51.796;10.952;2023-04-03T03:34:22;4.43;;;1.75;;
10882;SDS011;5494;51.796;10.952;2023-04-03T03:37:10;6.53;;;2.05;;
10882;SDS011;5494;51.796;10.952;2023-04-03T03:39:59;5.30;;;2.05;;
10882;SDS011;5494;51.796;10.952;2023-04-03T03:42:48;9.25;;;2.97;;
10882;SDS011;5494;51.796;10.952;2023-04-03T03:45:37;4.30;;;1.60;;
10882;SDS011;5494;51.796;10.952;2023-04-03T03:48:26;8.82;;;1.67;;
10882;SDS011;5494;51.796;10.952;2023-04-03T03:51:15;3.97;;;1.40;;
10882;SDS011;5494;51.796;10.952;2023-04-03T03:54:04;3.03;;;1.65;;
10882;SDS011;5494;51.796;10.952;2023-04-03T03:56:53;3.03;;;1.42;;
10882;SDS011;5494;51.796;10.952;2023-04-03T03:59:43;3.60;;;1.20;;
10882;SDS011;5494;51.796;10.952;2023-04-03T04:02:32;3.97;;;1.15;;
10882;SDS011;5494;51.796;10.952;2023-04-03T04:05:22;7.40;;;1.95;;
10882;SDS011;5494;51.796;10.952;2023-04-03T04:08:12;5.53;;;2.58;;
10882;SDS011;5494;51.796;10.952;2023-04-03T04:11:02;8.45;;;3.95;;
10882;SDS011;5494;51.796;10.952;2023-04-03T04:13:51;11.52;;;6.75;;
10882;SDS011;5494;51.796;10.952;2023-04-03T04:16:44;10.40;;;6.10;;
10882;SDS011;5494;51.796;10.952;2023-04-03T04:19:37;5.57;;;3.08;;
10882;SDS011;5494;51.796;10.952;2023-04-03T04:22:27;5.38;;;2.95;;
10882;SDS011;5494;51.796;10.952;2023-04-03T04:25:16;4.50;;;2.15;;
10882;SDS011;5494;51.796;10.952;2023-04-03T04:28:04;4.97;;;1.65;;
10882;SDS011;5494;51.796;10.952;2023-04-03T04:30:54;4.40;;;1.40;;
10882;SDS011;5494;51.796;10.952;2023-04-03T04:33:45;3.10;;;1.70;;
10882;SDS011;5494;51.796;10.952;2023-04-03T04:36:34;2.63;;;1.60;;
10882;SDS011;5494;51.796;10.952;2023-04-03T04:39:24;4.93;;;1.33;;
10882;SDS011;5494;51.796;10.952;2023-04-03T04:42:15;6.50;;;1.40;;
10882;SDS011;5494;51.796;10.952;2023-04-03T04:45:06;7.45;;;1.55;;
10882;SDS011;5494;51.796;10.952;2023-04-03T04:47:56;4.50;;;1.38;;
10882;SDS011;5494;51.796;10.952;2023-04-03T04:50:45;7.28;;;2.08;;
10882;SDS011;5494;51.796;10.952;2023-04-03T04:53:34;4.80;;;1.30;;
10882;SDS011;5494;51.796;10.952;2023-04-03T04:56:23;7.28;;;1.83;;
10882;SDS011;5494;51.796;10.952;2023-04-03T04:59:15;4.30;;;1.50;;
10882;SDS011;5494;51.796;10.952;2023-04-03T05:02:06;2.75;;;1.70;;
10882;SDS011;5494;51.796;10.952;2023-04-03T05:04:57;4.03;;;1.40;;
10882;SDS011;5494;51.796;10.952;2023-04-03T05:07:48;6.15;;;1.83;;
10882;SDS011;5494;51.796;10.952;2023-04-03T05:10:37;6.68;;;2.25;;
10882;SDS011;5494;51.796;10.952;2023-04-03T05:13:28;5.32;;;1.75;;
10882;SDS011;5494;51.796;10.952;2023-04-03T05:16:17;5.18;;;2.30;;
10882;SDS011;5494;51.796;10.952;2023-04-03T05:18:45;5.40;;;1.90;;
10882;SDS011;5494;51.796;10.952;2023-04-03T05:21:18;3.45;;;1.65;;
10882;SDS011;5494;51.796;10.952;2023-04-03T05:23:48;5.85;;;1.75;;
10882;SDS011;5494;51.796;10.952;2023-04-03T05:26:16;6.18;;;2.45;;
10882;SDS011;5494;51.796;10.952;2023-04-03T05:28:48;3.95;;;1.88;;
10882;SDS011;5494;51.796;10.952;2023-04-03T05:31:17;3.40;;;1.43;;
10882;SDS011;5494;51.796;10.952;2023-04-03T05:33:46;4.07;;;1.73;;
10882;SDS011;5494;51.796;10.952;2023-04-03T05:36:16;4.43;;;2.73;;
10882;SDS011;5494;51.796;10.952;2023-04-03T05:38:49;9.00;;;1.70;;
10882;SDS011;5494;51.796;10.952;2023-04-03T05:41:18;8.17;;;2.40;;
10882;SDS011;5494;51.796;10.952;2023-04-03T05:43:48;2.93;;;1.70;;
10882;SDS011;5494;51.796;10.952;2023-04-03T05:46:18;4.90;;;2.30;;
10882;SDS011;5494;51.796;10.952;2023-04-03T05:48:52;4.40;;;1.40;;
10882;SDS011;5494;51.796;10.952;2023-04-03T05:51:24;1.90;;;1.27;;
10882;SDS011;5494;51.796;10.952;2023-04-03T05:54:03;6.67;;;2.20;;
10882;SDS011;5494;51.796;10.952;2023-04-03T05:56:40;5.03;;;1.60;;
10882;SDS011;5494;51.796;10.952;2023-04-03T05:59:10;7.13;;;2.73;;
10882;SDS011;5494;51.796;10.952;2023-04-03T06:01:38;3.20;;;1.13;;
10882;SDS011;5494;51.796;10.952;2023-04-03T06:04:06;4.03;;;1.37;;
10882;SDS011;5494;51.796;10.952;2023-04-03T06:06:43;2.93;;;1.40;;
10882;SDS011;5494;51.796;10.952;2023-04-03T06:09:14;2.60;;;1.20;;
10882;SDS011;5494;51.796;10.952;2023-04-03T06:11:43;3.83;;;1.00;;
10882;SDS011;5494;51.796;10.952;2023-04-03T06:14:13;3.80;;;1.37;;
10882;SDS011;5494;51.796;10.952;2023-04-03T06:16:41;3.10;;;1.27;;
10882;SDS011;5494;51.796;10.952;2023-04-03T06:19:10;4.07;;;1.30;;
10882;SDS011;5494;51.796;10.952;2023-04-03T06:21:44;6.03;;;1.10;;
10882;SDS011;5494;51.796;10.952;2023-04-03T06:24:14;3.70;;;1.40;;
10882;SDS011;5494;51.796;10.952;2023-04-03T06:26:44;3.50;;;0.97;;
10882;SDS011;5494;51.796;10.952;2023-04-03T06:29:13;4.40;;;1.20;;
10882;SDS011;5494;51.796;10.952;2023-04-03T06:31:41;4.47;;;1.20;;
10882;SDS011;5494;51.796;10.952;2023-04-03T06:34:09;2.00;;;0.97;;
10882;SDS011;5494;51.796;10.952;2023-04-03T06:36:38;5.33;;;1.17;;
10882;SDS011;5494;51.796;10.952;2023-04-03T06:39:07;3.27;;;1.30;;
10882;SDS011;5494;51.796;10.952;2023-04-03T06:41:39;3.50;;;1.00;;
10882;SDS011;5494;51.796;10.952;2023-04-03T06:44:07;6.13;;;1.50;;
10882;SDS011;5494;51.796;10.952;2023-04-03T06:46:38;4.57;;;1.40;;
10882;SDS011;5494;51.796;10.952;2023-04-03T06:49:06;2.80;;;1.23;;
10882;SDS011;5494;51.796;10.952;2023-04-03T06:51:35;2.93;;;1.30;;
10882;SDS011;5494;51.796;10.952;2023-04-03T06:54:04;5.07;;;1.70;;
10882;SDS011;5494;51.796;10.952;2023-04-03T06:56:34;2.53;;;1.10;;
10882;SDS011;5494;51.796;10.952;2023-04-03T06:59:03;3.37;;;1.40;;
10882;SDS011;5494;51.796;10.952;2023-04-03T07:01:31;4.47;;;1.53;;
10882;SDS011;5494;51.796;10.952;2023-04-03T07:04:00;2.60;;;1.43;;
10882;SDS011;5494;51.796;10.952;2023-04-03T07:06:28;2.70;;;1.20;;
10882;SDS011;5494;51.796;10.952;2023-04-03T07:08:57;5.30;;;1.47;;
10882;SDS011;5494;51.796;10.952;2023-04-03T07:11:25;4.30;;;1.43;;
10882;SDS011;5494;51.796;10.952;2023-04-03T07:13:54;3.83;;;1.30;;
10882;SDS011;5494;51.796;10.952;2023-04-03T07:16:22;2.40;;;1.20;;
10882;SDS011;5494;51.796;10.952;2023-04-03T07:18:50;5.87;;;1.40;;
10882;SDS011;5494;51.796;10.952;2023-04-03T07:21:20;3.60;;;1.20;;
10882;SDS011;5494;51.796;10.952;2023-04-03T07:23:51;2.53;;;1.30;;
10882;SDS011;5494;51.796;10.952;2023-04-03T07:26:19;5.07;;;1.93;;
10882;SDS011;5494;51.796;10.952;2023-04-03T07:28:48;5.43;;;1.47;;
10882;SDS011;5494;51.796;10.952;2023-04-03T07:31:16;4.00;;;1.43;;
10882;SDS011;5494;51.796;10.952;2023-04-03T07:33:45;3.20;;;1.10;;
10882;SDS011;5494;51.796;10.952;2023-04-03T07:36:15;4.13;;;0.90;;
10882;SDS011;5494;51.796;10.952;2023-04-03T07:38:48;4.23;;;1.10;;
10882;SDS011;5494;51.796;10.952;2023-04-03T07:41:18;4.67;;;1.40;;
10882;SDS011;5494;51.796;10.952;2023-04-03T07:43:48;3.60;;;1.20;;
10882;SDS011;5494;51.796;10.952;2023-04-03T07:46:16;4.07;;;1.47;;
10882;SDS011;5494;51.796;10.952;2023-04-03T07:48:45;5.57;;;1.73;;
10882;SDS011;5494;51.796;10.952;2023-04-03T07:51:13;3.63;;;1.57;;
10882;SDS011;5494;51.796;10.952;2023-04-03T07:53:41;5.57;;;1.43;;
10882;SDS011;5494;51.796;10.952;2023-04-03T07:56:11;6.67;;;1.50;;
10882;SDS011;5494;51.796;10.952;2023-04-03T07:58:39;2.60;;;1.57;;
10882;SDS011;5494;51.796;10.952;2023-04-03T08:01:07;2.33;;;1.20;;
10882;SDS011;5494;51.796;10.952;2023-04-03T08:03:35;2.40;;;1.20;;
10882;SDS011;5494;51.796;10.952;2023-04-03T08:06:05;4.10;;;1.87;;
10882;SDS011;5494;51.796;10.952;2023-04-03T08:08:41;2.17;;;1.10;;
10882;SDS011;5494;51.796;10.952;2023-04-03T08:11:13;6.87;;;1.27;;
10882;SDS011;5494;51.796;10.952;2023-04-03T08:13:41;3.10;;;1.30;;
10882;SDS011;5494;51.796;10.952;2023-04-03T08:16:10;3.73;;;1.57;;
10882;SDS011;5494;51.796;10.952;2023-04-03T08:18:43;3.03;;;1.27;;
10882;SDS011;5494;51.796;10.952;2023-04-03T08:21:11;3.63;;;1.27;;
10882;SDS011;5494;51.796;10.952;2023-04-03T08:23:40;3.30;;;1.20;;
10882;SDS011;5494;51.796;10.952;2023-04-03T08:26:09;4.37;;;1.63;;
10882;SDS011;5494;51.796;10.952;2023-04-03T08:28:41;4.87;;;1.53;;
10882;SDS011;5494;51.796;10.952;2023-04-03T08:31:10;4.90;;;1.67;;
10882;SDS011;5494;51.796;10.952;2023-04-03T08:33:41;3.47;;;1.20;;
10882;SDS011;5494;51.796;10.952;2023-04-03T08:36:16;5.03;;;1.60;;
10882;SDS011;5494;51.796;10.952;2023-04-03T08:38:47;5.30;;;1.43;;
10882;SDS011;5494;51.796;10.952;2023-04-03T08:41:16;4.97;;;1.10;;
10882;SDS011;5494;51.796;10.952;2023-04-03T08:44:03;4.17;;;1.27;;
10882;SDS011;5494;51.796;10.952;2023-04-03T08:46:48;2.80;;;1.30;;
10882;SDS011;5494;51.796;10.952;2023-04-03T08:49:30;5.20;;;1.60;;
10882;SDS011;5494;51.796;10.952;2023-04-03T08:52:04;5.63;;;1.60;;
10882;SDS011;5494;51.796;10.952;2023-04-03T08:54:41;3.33;;;1.43;;
10882;SDS011;5494;51.796;10.952;2023-04-03T08:57:20;2.30;;;1.40;;
10882;SDS011;5494;51.796;10.952;2023-04-03T08:59:58;1.83;;;1.17;;
10882;SDS011;5494;51.796;10.952;2023-04-03T09:02:34;2.20;;;1.33;;
10882;SDS011;5494;51.796;10.952;2023-04-03T09:05:16;4.90;;;1.60;;
10882;SDS011;5494;51.796;10.952;2023-04-03T09:07:50;2.77;;;1.20;;
10882;SDS011;5494;51.796;10.952;2023-04-03T09:10:33;4.73;;;1.10;;
10882;SDS011;5494;51.796;10.952;2023-04-03T09:13:08;1.70;;;1.10;;
10882;SDS011;5494;51.796;10.952;2023-04-03T09:15:49;2.93;;;1.10;;
10882;SDS011;5494;51.796;10.952;2023-04-03T09:18:20;4.83;;;1.90;;
10882;SDS011;5494;51.796;10.952;2023-04-03T09:20:57;3.77;;;1.63;;
10882;SDS011;5494;51.796;10.952;2023-04-03T09:23:36;2.67;;;1.13;;
10882;SDS011;5494;51.796;10.952;2023-04-03T09:26:13;3.60;;;1.20;;
10882;SDS011;5494;51.796;10.952;2023-04-03T09:28:47;2.80;;;1.17;;
10882;SDS011;5494;51.796;10.952;2023-04-03T09:31:20;2.97;;;1.20;;
10882;SDS011;5494;51.796;10.952;2023-04-03T09:33:52;2.03;;;1.03;;
10882;SDS011;5494;51.796;10.952;2023-04-03T09:36:37;4.00;;;0.93;;
10882;SDS011;5494;51.796;10.952;2023-04-03T09:39:11;3.37;;;1.40;;
10882;SDS011;5494;51.796;10.952;2023-04-03T09:41:42;2.70;;;1.13;;
10882;SDS011;5494;51.796;10.952;2023-04-03T09:44:27;2.97;;;1.00;;
10882;SDS011;5494;51.796;10.952;2023-04-03T09:46:59;1.70;;;0.90;;
10882;SDS011;5494;51.796;10.952;2023-04-03T09:49:50;4.07;;;1.57;;
10882;SDS011;5494;51.796;10.952;2023-04-03T09:52:44;4.00;;;1.30;;
10882;SDS011;5494;51.796;10.952;2023-04-03T09:55:15;3.13;;;1.00;;
10882;SDS011;5494;51.796;10.952;2023-04-03T09:57:45;3.80;;;1.10;;
10882;SDS011;5494;51.796;10.952;2023-04-03T10:00:21;1.67;;;0.90;;
10882;SDS011;5494;51.796;10.952;2023-04-03T10:02:53;3.50;;;1.00;;
10882;SDS011;5494;51.796;10.952;2023-04-03T10:05:28;3.87;;;0.97;;
10882;SDS011;5494;51.796;10.952;2023-04-03T10:08:07;2.10;;;1.00;;
10882;SDS011;5494;51.796;10.952;2023-04-03T10:10:42;5.40;;;1.17;;
10882;SDS011;5494;51.796;10.952;2023-04-03T10:13:13;3.37;;;1.23;;
10882;SDS011;5494;51.796;10.952;2023-04-03T10:15:48;1.37;;;0.87;;
10882;SDS011;5494;51.796;10.952;2023-04-03T10:18:29;2.03;;;0.90;;
10882;SDS011;5494;51.796;10.952;2023-04-03T10:21:06;2.80;;;1.23;;
10882;SDS011;5494;51.796;10.952;2023-04-03T10:23:54;1.13;;;0.83;;
10882;SDS011;5494;51.796;10.952;2023-04-03T10:26:36;2.43;;;2.07;;
10882;SDS011;5494;51.796;10.952;2023-04-03T10:29:17;1.97;;;0.93;;
10882;SDS011;5494;51.796;10.952;2023-04-03T10:32:08;1.70;;;0.80;;
10882;SDS011;5494;51.796;10.952;2023-04-03T10:34:58;3.77;;;1.50;;
10882;SDS011;5494;51.796;10.952;2023-04-03T10:37:41;3.33;;;1.03;;
10882;SDS011;5494;51.796;10.952;2023-04-03T10:40:29;1.33;;;0.90;;
10882;SDS011;5494;51.796;10.952;2023-04-03T10:43:11;1.73;;;0.80;;
10882;SDS011;5494;51.796;10.952;2023-04-03T10:45:51;3.43;;;1.27;;
10882;SDS011;5494;51.796;10.952;2023-04-03T10:48:33;1.80;;;0.80;;
10882;SDS011;5494;51.796;10.952;2023-04-03T10:51:21;2.60;;;1.03;;
10882;SDS011;5494;51.796;10.952;2023-04-03T10:54:00;3.67;;;1.60;;
10882;SDS011;5494;51.796;10.952;2023-04-03T10:56:36;4.00;;;1.50;;
10882;SDS011;5494;51.796;10.952;2023-04-03T10:59:14;2.73;;;1.50;;
10882;SDS011;5494;51.796;10.952;2023-04-03T11:01:53;5.53;;;2.57;;
10882;SDS011;5494;51.796;10.952;2023-04-03T11:04:28;3.77;;;1.67;;
10882;SDS011;5494;51.796;10.952;2023-04-03T11:07:08;2.27;;;1.30;;
10882;SDS011;5494;51.796;10.952;2023-04-03T11:09:46;1.90;;;1.00;;
10882;SDS011;5494;51.796;10.952;2023-04-03T11:12:21;1.80;;;0.77;;
10882;SDS011;5494;51.796;10.952;2023-04-03T11:14:56;1.70;;;1.00;;
10882;SDS011;5494;51.796;10.952;2023-04-03T11:17:27;4.43;;;1.63;;
10882;SDS011;5494;51.796;10.952;2023-04-03T11:20:03;3.93;;;2.57;;
10882;SDS011;5494;51.796;10.952;2023-04-03T11:22:45;2.30;;;1.70;;
10882;SDS011;5494;51.796;10.952;2023-04-03T11:25:21;7.10;;;3.27;;
10882;SDS011;5494;51.796;10.952;2023-04-03T11:27:54;2.50;;;1.00;;
10882;SDS011;5494;51.796;10.952;2023-04-03T11:30:25;3.43;;;1.00;;
10882;SDS011;5494;51.796;10.952;2023-04-03T11:35:56;3.23;;;1.33;;
10882;SDS011;5494;51.796;10.952;2023-04-03T11:38:46;1.60;;;1.07;;
10882;SDS011;5494;51.796;10.952;2023-04-03T11:41:23;2.40;;;1.20;;
10882;SDS011;5494;51.796;10.952;2023-04-03T11:43:56;3.10;;;0.90;;
10882;SDS011;5494;51.796;10.952;2023-04-03T11:55:44;2.50;;;1.00;;
10882;SDS011;5494;51.796;10.952;2023-04-03T11:58:21;2.93;;;0.93;;
10882;SDS011;5494;51.796;10.952;2023-04-03T12:00:56;3.70;;;1.07;;
10882;SDS011;5494;51.796;10.952;2023-04-03T12:06:42;1.87;;;1.00;;
10882;SDS011;5494;51.796;10.952;2023-04-03T12:12:59;2.30;;;0.80;;
10882;SDS011;5494;51.796;10.952;2023-04-03T12:24:35;1.13;;;0.80;;
10882;SDS011;5494;51.796;10.952;2023-04-03T12:27:14;1.73;;;0.90;;
10882;SDS011;5494;51.796;10.952;2023-04-03T12:29:55;2.40;;;0.70;;
10882;SDS011;5494;51.796;10.952;2023-04-03T12:32:35;3.90;;;0.90;;
10882;SDS011;5494;51.796;10.952;2023-04-03T12:35:39;2.93;;;0.90;;
10882;SDS011;5494;51.796;10.952;2023-04-03T12:38:37;1.30;;;0.90;;
10882;SDS011;5494;51.796;10.952;2023-04-03T12:41:30;1.83;;;0.93;;
10882;SDS011;5494;51.796;10.952;2023-04-03T12:44:15;1.17;;;0.83;;
10882;SDS011;5494;51.796;10.952;2023-04-03T12:47:08;2.07;;;0.87;;
10882;SDS011;5494;51.796;10.952;2023-04-03T12:49:51;1.33;;;0.87;;
10882;SDS011;5494;51.796;10.952;2023-04-03T12:52:24;3.47;;;0.93;;
10882;SDS011;5494;51.796;10.952;2023-04-03T12:55:03;1.17;;;0.80;;
10882;SDS011;5494;51.796;10.952;2023-04-03T12:57:42;2.20;;;1.00;;
10882;SDS011;5494;51.796;10.952;2023-04-03T13:00:21;2.40;;;1.03;;
10882;SDS011;5494;51.796;10.952;2023-04-03T13:03:02;1.47;;;0.80;;
10882;SDS011;5494;51.796;10.952;2023-04-03T13:05:34;5.83;;;1.73;;
10882;SDS011;5494;51.796;10.952;2023-04-03T13:08:04;3.97;;;1.40;;
10882;SDS011;5494;51.796;10.952;2023-04-03T13:10:47;2.87;;;1.00;;
10882;SDS011;5494;51.796;10.952;2023-04-03T13:13:23;2.27;;;0.90;;
10882;SDS011;5494;51.796;10.952;2023-04-03T13:15:53;2.60;;;0.70;;
10882;SDS011;5494;51.796;10.952;2023-04-03T13:18:28;4.27;;;1.13;;
10882;SDS011;5494;51.796;10.952;2023-04-03T13:21:00;3.30;;;1.00;;
10882;SDS011;5494;51.796;10.952;2023-04-03T13:23:34;1.17;;;0.90;;
10882;SDS011;5494;51.796;10.952;2023-04-03T13:26:06;1.30;;;0.87;;
10882;SDS011;5494;51.796;10.952;2023-04-03T13:28:35;1.80;;;0.90;;
10882;SDS011;5494;51.796;10.952;2023-04-03T13:31:06;3.43;;;1.50;;
10882;SDS011;5494;51.796;10.952;2023-04-03T13:33:52;2.83;;;1.10;;
10882;SDS011;5494;51.796;10.952;2023-04-03T13:36:25;2.70;;;0.90;;
10882;SDS011;5494;51.796;10.952;2023-04-03T13:38:59;2.57;;;1.00;;
10882;SDS011;5494;51.796;10.952;2023-04-03T13:41:33;3.90;;;1.20;;
10882;SDS011;5494;51.796;10.952;2023-04-03T13:44:23;2.67;;;1.03;;
10882;SDS011;5494;51.796;10.952;2023-04-03T13:46:58;1.67;;;1.20;;
10882;SDS011;5494;51.796;10.952;2023-04-03T13:49:43;1.20;;;0.90;;
10882;SDS011;5494;51.796;10.952;2023-04-03T13:52:20;2.50;;;1.13;;
10882;SDS011;5494;51.796;10.952;2023-04-03T13:54:56;1.20;;;1.10;;
10882;SDS011;5494;51.796;10.952;2023-04-03T13:57:30;1.50;;;1.20;;
10882;SDS011;5494;51.796;10.952;2023-04-03T14:02:58;3.17;;;1.67;;
10882;SDS011;5494;51.796;10.952;2023-04-03T14:05:28;2.80;;;1.10;;
10882;SDS011;5494;51.796;10.952;2023-04-03T14:07:56;2.20;;;1.20;;
10882;SDS011;5494;51.796;10.952;2023-04-03T14:10:25;4.30;;;1.40;;
10882;SDS011;5494;51.796;10.952;2023-04-03T14:12:53;3.10;;;1.10;;
10882;SDS011;5494;51.796;10.952;2023-04-03T14:15:22;1.73;;;0.90;;
10882;SDS011;5494;51.796;10.952;2023-04-03T14:17:54;2.57;;;1.10;;
10882;SDS011;5494;51.796;10.952;2023-04-03T14:20:25;3.80;;;2.47;;
10882;SDS011;5494;51.796;10.952;2023-04-03T14:22:55;2.37;;;1.13;;
10882;SDS011;5494;51.796;10.952;2023-04-03T14:25:24;3.20;;;1.53;;
10882;SDS011;5494;51.796;10.952;2023-04-03T14:27:52;3.53;;;1.10;;
10882;SDS011;5494;51.796;10.952;2023-04-03T14:30:22;4.37;;;2.30;;
10882;SDS011;5494;51.796;10.952;2023-04-03T14:32:53;4.50;;;1.53;;
10882;SDS011;5494;51.796;10.952;2023-04-03T14:35:23;2.73;;;1.90;;
10882;SDS011;5494;51.796;10.952;2023-04-03T14:37:52;3.57;;;1.80;;
10882;SDS011;5494;51.796;10.952;2023-04-03T14:40:23;4.27;;;2.20;;
10882;SDS011;5494;51.796;10.952;2023-04-03T14:42:54;4.40;;;1.73;;
10882;SDS011;5494;51.796;10.952;2023-04-03T14:45:23;3.63;;;1.73;;
10882;SDS011;5494;51.796;10.952;2023-04-03T14:47:53;2.20;;;1.10;;
10882;SDS011;5494;51.796;10.952;2023-04-03T14:50:24;3.57;;;1.03;;
10882;SDS011;5494;51.796;10.952;2023-04-03T14:52:56;4.43;;;1.40;;
10882;SDS011;5494;51.796;10.952;2023-04-03T14:55:26;1.93;;;1.17;;
10882;SDS011;5494;51.796;10.952;2023-04-03T14:57:54;4.83;;;1.00;;
10882;SDS011;5494;51.796;10.952;2023-04-03T15:00:22;3.00;;;1.10;;
10882;SDS011;5494;51.796;10.952;2023-04-03T15:02:50;3.97;;;1.13;;
10882;SDS011;5494;51.796;10.952;2023-04-03T15:05:19;4.00;;;1.20;;
10882;SDS011;5494;51.796;10.952;2023-04-03T15:07:48;1.60;;;1.23;;
10882;SDS011;5494;51.796;10.952;2023-04-03T15:10:24;2.17;;;1.13;;
10882;SDS011;5494;51.796;10.952;2023-04-03T15:12:54;1.80;;;0.93;;
10882;SDS011;5494;51.796;10.952;2023-04-03T15:15:23;1.93;;;0.93;;
10882;SDS011;5494;51.796;10.952;2023-04-03T15:17:56;3.50;;;1.53;;
10882;SDS011;5494;51.796;10.952;2023-04-03T15:20:25;1.63;;;1.13;;
10882;SDS011;5494;51.796;10.952;2023-04-03T15:22:57;1.90;;;1.00;;
10882;SDS011;5494;51.796;10.952;2023-04-03T15:25:28;2.43;;;1.37;;
10882;SDS011;5494;51.796;10.952;2023-04-03T15:27:58;2.67;;;1.10;;
10882;SDS011;5494;51.796;10.952;2023-04-03T15:30:27;3.67;;;1.00;;
10882;SDS011;5494;51.796;10.952;2023-04-03T15:32:55;6.17;;;1.73;;
10882;SDS011;5494;51.796;10.952;2023-04-03T15:35:23;1.73;;;1.20;;
10882;SDS011;5494;51.796;10.952;2023-04-03T15:37:51;4.57;;;1.07;;
10882;SDS011;5494;51.796;10.952;2023-04-03T15:40:20;3.53;;;1.40;;
10882;SDS011;5494;51.796;10.952;2023-04-03T15:42:49;3.97;;;1.43;;
10882;SDS011;5494;51.796;10.952;2023-04-03T15:45:19;2.23;;;1.20;;
10882;SDS011;5494;51.796;10.952;2023-04-03T15:47:48;3.03;;;1.97;;
10882;SDS011;5494;51.796;10.952;2023-04-03T15:50:17;2.83;;;1.80;;
10882;SDS011;5494;51.796;10.952;2023-04-03T15:52:44;2.27;;;1.10;;
10882;SDS011;5494;51.796;10.952;2023-04-03T15:55:12;3.63;;;1.30;;
10882;SDS011;5494;51.796;10.952;2023-04-03T15:57:41;1.90;;;1.10;;
10882;SDS011;5494;51.796;10.952;2023-04-03T16:00:12;2.70;;;1.40;;
10882;SDS011;5494;51.796;10.952;2023-04-03T16:02:41;3.07;;;1.70;;
10882;SDS011;5494;51.796;10.952;2023-04-03T16:05:10;1.83;;;1.33;;
10882;SDS011;5494;51.796;10.952;2023-04-03T16:07:39;3.00;;;1.10;;
10882;SDS011;5494;51.796;10.952;2023-04-03T16:10:08;2.23;;;1.30;;
10882;SDS011;5494;51.796;10.952;2023-04-03T16:12:37;3.47;;;1.13;;
10882;SDS011;5494;51.796;10.952;2023-04-03T16:15:06;4.53;;;1.30;;
10882;SDS011;5494;51.796;10.952;2023-04-03T16:17:37;2.17;;;1.43;;
10882;SDS011;5494;51.796;10.952;2023-04-03T16:20:08;2.97;;;0.93;;
10882;SDS011;5494;51.796;10.952;2023-04-03T16:22:39;2.77;;;1.47;;
10882;SDS011;5494;51.796;10.952;2023-04-03T16:25:07;2.80;;;1.47;;
10882;SDS011;5494;51.796;10.952;2023-04-03T16:27:36;10.47;;;4.80;;
10882;SDS011;5494;51.796;10.952;2023-04-03T16:30:05;3.90;;;2.03;;